| time (UTC) | temp F | wind direction | speed MPH | gust MPH | rain 1hr in | rain 24hr in | rain mn in | humidity % | barometer mb |
| 20260902021514 | 60 | 285 | 8.0 | 12.0 | 0.00 | 0.00 | 0.00 | 50 | 1008.8 |
| 20260902020014 | 59 | 245 | 8.0 | 14.0 | 0.00 | 0.00 | 0.00 | 51 | 1008.8 |
| 20260902014515 | 59 | 264 | 6.0 | 12.0 | 0.00 | 0.00 | 0.00 | 52 | 1008.8 |
| 20260902013010 | 59 | 303 | 8.0 | 14.0 | 0.00 | 0.00 | 0.00 | 51 | 1008.9 |
| 20260902011516 | 59 | 254 | 5.0 | 10.0 | 0.00 | 0.00 | 0.00 | 53 | 1009.2 |
| 20260902010006 | 59 | 278 | 7.0 | 14.0 | 0.00 | 0.00 | 0.00 | 53 | 1009.4 |
| 20260902004506 | 60 | 275 | 9.0 | 16.0 | 0.00 | 0.00 | 0.00 | 52 | 1009.8 |
| 20260902003004 | 59 | 273 | 8.0 | 13.0 | 0.00 | 0.00 | 0.00 | 52 | 1009.9 |
| 20260902001506 | 59 | 248 | 6.0 | 14.0 | 0.00 | 0.00 | 0.00 | 54 | 1009.9 |
| 20260902000007 | 59 | 265 | 7.0 | 15.0 | 0.00 | 0.00 | 0.00 | 54 | 1010.0 |
| 20260901234502 | 59 | 286 | 8.0 | 15.0 | 0.00 | 0.00 | 0.00 | 54 | 1009.9 |
| 20260901233001 | 59 | 274 | 9.0 | 14.0 | 0.00 | 0.00 | 0.00 | 54 | 1009.8 |
| 20260901231614 | 59 | 274 | 7.0 | 16.0 | 0.00 | 0.00 | 0.00 | 53 | 1010.1 |
| 20260901230109 | 58 | 293 | 9.0 | 19.0 | 0.00 | 0.00 | 0.00 | 53 | 1010.1 |
| 20260901224559 | 58 | 258 | 8.0 | 15.0 | 0.00 | 0.00 | 0.00 | 54 | 1010.3 |
| 20260901223059 | 57 | 265 | 5.0 | 12.0 | 0.00 | 0.00 | 0.00 | 54 | 1010.2 |
| 20260901221610 | 57 | 349 | 8.0 | 17.0 | 0.00 | 0.00 | 0.00 | 53 | 1010.3 |
| 20260901220058 | 58 | 283 | 9.0 | 19.0 | 0.00 | 0.00 | 0.00 | 52 | 1010.4 |
| 20260901214556 | 58 | 254 | 9.0 | 17.0 | 0.00 | 0.00 | 0.00 | 51 | 1010.3 |
| 20260901213056 | 59 | 258 | 8.0 | 15.0 | 0.00 | 0.00 | 0.00 | 50 | 1010.6 |
| 20260901211552 | 59 | 285 | 5.0 | 11.0 | 0.00 | 0.00 | 0.00 | 51 | 1010.6 |
| 20260901210050 | 58 | 266 | 4.0 | 12.0 | 0.00 | 0.00 | 0.00 | 52 | 1010.8 |
| 20260901204546 | 57 | 275 | 2.0 | 7.0 | 0.00 | 0.00 | 0.00 | 55 | 1010.9 |
| 20260901203047 | 56 | 277 | 1.0 | 6.0 | 0.00 | 0.00 | 0.00 | 56 | 1010.8 |
| 20260901201545 | 55 | 298 | 5.0 | 9.0 | 0.00 | 0.00 | 0.00 | 59 | 1010.8 |
| 20260901200036 | 54 | 267 | 6.0 | 10.0 | 0.00 | 0.00 | 0.00 | 60 | 1010.3 |
| 20260901194535 | 54 | 249 | 8.0 | 13.0 | 0.00 | 0.00 | 0.00 | 59 | 1010.2 |
| 20260901193033 | 52 | 293 | 6.0 | 10.0 | 0.00 | 0.00 | 0.00 | 61 | 1010.4 |
| 20260901191541 | 51 | 289 | 6.0 | 12.0 | 0.00 | 0.00 | 0.00 | 62 | 1010.2 |
| 20260901190030 | 0 | 0.0 | 0.0 | 0.00 | 0.00 | 0.00 | 1010.1 | ||
| 20260901184526 | 0 | 0.0 | 0.0 | 0.00 | 0.00 | 0.00 | 1010.0 | ||
| 20260901183034 | 0 | 0.0 | 0.0 | 0.00 | 0.00 | 0.00 | 1010.3 | ||
| 20260901181518 | 0 | 0.0 | 0.0 | 0.00 | 0.00 | 0.00 | 1010.1 | ||
| 20260901180018 | 0 | 0.0 | 0.0 | 0.00 | 0.00 | 0.00 | 1009.9 | ||
| 20260901174509 | 0 | 0.0 | 0.0 | 0.00 | 0.00 | 0.00 | 1009.9 | ||
| 20260901173004 | 0 | 0.0 | 0.0 | 0.00 | 0.00 | 0.00 | 1010.2 | ||
| 20260901171603 | 0 | 0.0 | 0.0 | 0.00 | 0.00 | 0.00 | 1010.1 | ||
| 20260901170101 | 0 | 0.0 | 0.0 | 0.00 | 0.00 | 0.00 | 1010.1 | ||
| 20260901164552 | 0 | 0.0 | 0.0 | 0.00 | 0.00 | 0.00 | 1009.7 | ||
| 20260901163106 | 0 | 0.0 | 0.0 | 0.00 | 0.00 | 0.00 | 1009.5 | ||
| 20260901161550 | 51 | 275 | 6.0 | 14.0 | 0.00 | 0.00 | 0.00 | 64 | 1009.5 |
| 20260901160042 | 52 | 354 | 8.0 | 13.0 | 0.00 | 0.00 | 0.00 | 64 | 1009.4 |
| 20260901154542 | 52 | 289 | 6.0 | 13.0 | 0.00 | 0.00 | 0.00 | 64 | 1009.6 |
| 20260901153036 | 51 | 262 | 4.0 | 12.0 | 0.00 | 0.00 | 0.00 | 64 | 1009.7 |
| 20260901151539 | 51 | 265 | 4.0 | 9.0 | 0.00 | 0.00 | 0.00 | 65 | 1009.9 |
| 20260901150032 | 51 | 258 | 5.0 | 8.0 | 0.00 | 0.00 | 0.00 | 65 | 1010.0 |
| 20260901144529 | 51 | 266 | 2.0 | 11.0 | 0.00 | 0.00 | 0.00 | 65 | 1010.3 |
| 20260901143027 | 51 | 303 | 1.0 | 3.0 | 0.00 | 0.00 | 0.00 | 65 | 1010.3 |
| 20260901141533 | 51 | 293 | 2.0 | 9.0 | 0.00 | 0.00 | 0.00 | 64 | 1010.2 |
| 20260901140023 | 51 | 294 | 0.0 | 2.0 | 0.00 | 0.00 | 0.00 | 63 | 1010.5 |
| 20260901134520 | 51 | 264 | 2.0 | 4.0 | 0.00 | 0.00 | 0.00 | 63 | 1010.7 |
| 20260901133019 | 51 | 270 | 1.0 | 7.0 | 0.00 | 0.00 | 0.00 | 60 | 1010.4 |
| 20260901131516 | 51 | 262 | 5.0 | 10.0 | 0.00 | 0.00 | 0.00 | 60 | 1010.1 |
| 20260901130013 | 52 | 258 | 5.0 | 12.0 | 0.00 | 0.00 | 0.00 | 60 | 1010.1 |
| 20260901124508 | 51 | 261 | 3.0 | 8.0 | 0.00 | 0.00 | 0.00 | 59 | 1010.2 |
| 20260901123006 | 52 | 275 | 4.0 | 10.0 | 0.00 | 0.00 | 0.00 | 57 | 1010.0 |
| 20260901121502 | 52 | 261 | 3.0 | 11.0 | 0.00 | 0.00 | 0.00 | 58 | 1010.1 |
| 20260901120108 | 52 | 269 | 5.0 | 12.0 | 0.00 | 0.00 | 0.00 | 58 | 1010.0 |
| 20260901114603 | 52 | 281 | 5.0 | 11.0 | 0.00 | 0.00 | 0.00 | 57 | 1010.0 |
| 20260901113058 | 51 | 269 | 4.0 | 8.0 | 0.00 | 0.00 | 0.00 | 61 | 1009.8 |
| 20260901111559 | 48 | 268 | 2.0 | 7.0 | 0.00 | 0.00 | 0.00 | 65 | 1010.1 |
| 20260901110057 | 47 | 339 | 0.0 | 1.0 | 0.00 | 0.00 | 0.00 | 66 | 1010.3 |
| 20260901104556 | 47 | 280 | 0.0 | 1.0 | 0.00 | 0.00 | 0.00 | 66 | 1010.2 |
| 20260901103058 | 48 | 293 | 1.0 | 3.0 | 0.00 | 0.00 | 0.00 | 65 | 1010.3 |
| 20260901101604 | 48 | 273 | 0.0 | 4.0 | 0.00 | 0.00 | 0.00 | 64 | 1010.4 |
| 20260901100057 | 49 | 284 | 4.0 | 8.0 | 0.00 | 0.00 | 0.00 | 62 | 1010.1 |
| 20260901094549 | 49 | 276 | 3.0 | 7.0 | 0.00 | 0.00 | 0.00 | 63 | 1010.0 |
| 20260901093049 | 48 | 260 | 1.0 | 3.0 | 0.00 | 0.00 | 0.00 | 63 | 1010.0 |
| 20260901091547 | 49 | 294 | 0.0 | 1.0 | 0.00 | 0.00 | 0.00 | 61 | 1010.1 |
| 20260901090046 | 50 | 285 | 1.0 | 4.0 | 0.00 | 0.00 | 0.00 | 58 | 1010.0 |
| 20260901084556 | 51 | 264 | 2.0 | 6.0 | 0.00 | 0.00 | 0.00 | 58 | 1009.8 |
| 20260901083045 | 51 | 292 | 5.0 | 9.0 | 0.00 | 0.00 | 0.00 | 58 | 1009.7 |
| 20260901081544 | 51 | 288 | 4.0 | 8.0 | 0.00 | 0.00 | 0.00 | 57 | 1009.8 |
| 20260901080104 | 52 | 267 | 5.0 | 10.0 | 0.00 | 0.00 | 0.00 | 56 | 1009.7 |
| 20260901074544 | 50 | 276 | 2.0 | 10.0 | 0.00 | 0.00 | 0.00 | 58 | 1009.6 |
| 20260901073049 | 50 | 279 | 2.0 | 6.0 | 0.00 | 0.00 | 0.00 | 59 | 1009.4 |
| 20260901071542 | 51 | 281 | 4.0 | 8.0 | 0.00 | 0.00 | 0.00 | 57 | 1009.2 |
| 20260901070041 | 52 | 288 | 4.0 | 10.0 | 0.00 | 0.00 | 0.00 | 55 | 1009.1 |
| 20260901064541 | 52 | 276 | 3.0 | 6.0 | 0.00 | 0.00 | 0.00 | 54 | 1009.0 |
| 20260901063040 | 53 | 259 | 5.0 | 11.0 | 0.00 | 0.00 | 0.00 | 52 | 1008.9 |
| 20260901061539 | 54 | 266 | 6.0 | 13.0 | 0.00 | 0.00 | 0.00 | 49 | 1008.6 |
| 20260901060042 | 55 | 277 | 7.0 | 15.0 | 0.00 | 0.00 | 0.00 | 48 | 1008.5 |
| 20260901054538 | 55 | 291 | 5.0 | 13.0 | 0.00 | 0.00 | 0.00 | 48 | 1008.5 |
| 20260901053050 | 56 | 298 | 7.0 | 16.0 | 0.00 | 0.00 | 0.00 | 47 | 1008.4 |
| 20260901051536 | 57 | 274 | 6.0 | 12.0 | 0.00 | 0.00 | 0.00 | 45 | 1008.3 |
| 20260901050036 | 57 | 288 | 5.0 | 15.0 | 0.00 | 0.00 | 0.00 | 47 | 1008.4 |
| 20260901044535 | 57 | 272 | 8.0 | 17.0 | 0.00 | 0.00 | 0.00 | 44 | 1008.3 |
| 20260901043036 | 58 | 271 | 3.0 | 14.0 | 0.00 | 0.00 | 0.00 | 47 | 1008.5 |
| 20260901041536 | 56 | 42 | 0.0 | 5.0 | 0.00 | 0.00 | 0.00 | 58 | 1008.8 |
| 20260901040031 | 56 | 304 | 1.0 | 6.0 | 0.00 | 0.00 | 0.00 | 57 | 1008.8 |
| 20260901034533 | 54 | 347 | 6.0 | 10.0 | 0.00 | 0.00 | 0.00 | 62 | 1009.0 |
| 20260901033030 | 54 | 93 | 4.0 | 10.0 | 0.00 | 0.00 | 0.00 | 63 | 1009.0 |
| 20260901031529 | 53 | 82 | 3.0 | 11.0 | 0.00 | 0.00 | 0.00 | 62 | 1009.2 |
| 20260901030028 | 54 | 53 | 4.0 | 12.0 | 0.00 | 0.00 | 0.00 | 62 | 1009.2 |
| 20260901024527 | 54 | 72 | 7.0 | 11.0 | 0.00 | 0.00 | 0.00 | 61 | 1008.9 |
| 20260901023027 | 53 | 40 | 5.0 | 10.0 | 0.00 | 0.00 | 0.00 | 64 | 1009.2 |